Time;durP1;ratioP1;P1;durP2;ratioP2;P2;SDS_P1;SDS_P2;PMS_P1;PMS_P2;Temp;Humidity;BMP_temperature;BMP_pressure;BME280_temperature;BME280_humidity;BME280_pressure;Samples;Min_cycle;Max_cycle;Signal;HPM_P1;HPM_P2
2021/12/23 00:00:53;;;;;;;;;;;-1.40;99.90;;;;;;5048660;28;19997;-82
2021/12/23 00:03:20;;;;;;;;;;;-1.40;99.90;;;;;;5047373;28;19925;-82
2021/12/23 00:05:46;;;;;;;;;;;-1.30;99.90;;;;;;5046510;28;19956;-82
2021/12/23 00:08:13;;;;;;;;;;;-1.40;99.90;;;;;;5045041;28;19924;-82
2021/12/23 00:10:40;;;;;;;;;;;-1.40;99.90;;;;;;5043815;28;19937;-82
2021/12/23 00:13:06;;;;;;;;;;;-1.40;99.90;;;;;;5043483;28;20318;-82
2021/12/23 00:15:39;;;;;;;;;;;-1.40;99.90;;;;;;5043888;28;20339;-82
2021/12/23 00:18:18;;;;;;;;;;;-1.40;99.90;;;;;;5043961;28;19925;-82
2021/12/23 00:23:28;;;;;;;;;;;-1.50;99.90;;;;;;5051251;28;20122;-82
2021/12/23 00:25:57;;;;;;;;;;;-1.50;99.90;;;;;;5044238;28;19925;-82
2021/12/23 00:28:24;;;;;;;;;;;-1.50;99.90;;;;;;5043435;28;19947;-82
2021/12/23 00:30:52;;;;;;;;;;;-1.60;99.90;;;;;;5043281;28;19948;-82
2021/12/23 00:33:21;;;;;;;;;;;-1.40;99.90;;;;;;5043070;28;19929;-82
2021/12/23 00:35:48;;;;;;;;;;;-1.50;99.90;;;;;;5042214;28;20377;-82
2021/12/23 00:38:19;;;;;;;;;;;-1.70;99.90;;;;;;5041944;28;19925;-82
2021/12/23 00:40:46;;;;;;;;;;;-1.60;99.90;;;;;;5050037;28;19925;-82
2021/12/23 00:43:13;;;;;;;;;;;-1.50;99.90;;;;;;5059717;28;19960;-83
2021/12/23 00:45:40;;;;;;;;;;;-1.50;99.90;;;;;;5059454;28;19932;-84
2021/12/23 00:48:07;;;;;;;;;;;-1.30;99.90;;;;;;5043125;28;19932;-81
2021/12/23 00:50:34;;;;;;;;;;;-1.50;99.90;;;;;;5041682;28;19948;-82
2021/12/23 00:53:05;;;;;;;;;;;-1.50;99.90;;;;;;5041234;28;19948;-82
2021/12/23 00:55:32;;;;;;;;;;;-1.50;99.90;;;;;;5044626;28;19925;-82
2021/12/23 00:57:59;;;;;;;;;;;-1.50;99.90;;;;;;5042014;28;19925;-82
2021/12/23 01:00:26;;;;;;;;;;;-1.50;99.90;;;;;;5042596;28;19925;-81
2021/12/23 01:02:52;;;;;;;;;;;-1.50;99.90;;;;;;5041618;28;19948;-81
2021/12/23 01:05:21;;;;;;;;;;;-1.50;99.90;;;;;;5043260;28;19945;-82
2021/12/23 01:07:48;;;;;;;;;;;-1.50;99.90;;;;;;5063857;22;19925;-80
2021/12/23 01:10:15;;;;;;;;;;;-1.60;99.90;;;;;;5048618;28;19929;-80
2021/12/23 01:12:46;;;;;;;;;;;-1.50;99.90;;;;;;5048114;28;19925;-81
2021/12/23 01:15:16;;;;;;;;;;;-1.60;99.90;;;;;;5047172;28;19932;-81
2021/12/23 01:17:54;;;;;;;;;;;-1.50;99.90;;;;;;5047571;28;20424;-81
2021/12/23 01:20:27;;;;;;;;;;;-1.70;99.90;;;;;;5048240;28;19991;-82
2021/12/23 01:22:54;;;;;;;;;;;-1.70;99.90;;;;;;5049355;28;19926;-82
2021/12/23 01:25:21;;;;;;;;;;;-1.60;99.90;;;;;;5048740;28;19932;-83
2021/12/23 01:27:47;;;;;;;;;;;-1.60;99.90;;;;;;5048970;28;19925;-81
2021/12/23 01:30:14;;;;;;;;;;;-1.60;99.90;;;;;;5048745;28;19925;-82
2021/12/23 01:32:41;;;;;;;;;;;-1.60;99.90;;;;;;5049101;28;19925;-82
2021/12/23 01:35:08;;;;;;;;;;;-1.60;99.90;;;;;;5049234;28;19944;-82
2021/12/23 01:37:35;;;;;;;;;;;-1.60;99.90;;;;;;5049240;28;19925;-82
2021/12/23 01:40:02;;;;;;;;;;;-1.60;99.90;;;;;;5049600;28;19956;-82
2021/12/23 01:42:28;;;;;;;;;;;-1.60;99.90;;;;;;5048677;28;19956;-82
2021/12/23 01:44:55;;;;;;;;;;;-2.00;99.90;;;;;;5048864;28;19940;-82
2021/12/23 01:47:21;;;;;;;;;;;-1.60;99.90;;;;;;5049142;28;19936;-82
2021/12/23 01:49:48;;;;;;;;;;;-1.60;99.90;;;;;;5047662;28;19925;-82
2021/12/23 01:52:14;;;;;;;;;;;-1.70;99.90;;;;;;5046243;28;20244;-82
2021/12/23 01:54:42;;;;;;;;;;;-1.60;99.90;;;;;;5047440;28;19925;-82
2021/12/23 01:57:09;;;;;;;;;;;-1.60;99.90;;;;;;5048523;28;19925;-82
2021/12/23 01:59:35;;;;;;;;;;;-1.70;99.90;;;;;;5049195;28;19929;-82
2021/12/23 02:02:02;;;;;;;;;;;-1.70;99.90;;;;;;5054325;28;19926;-80
2021/12/23 02:04:28;;;;;;;;;;;-1.70;99.90;;;;;;5056578;28;19925;-80
2021/12/23 02:06:55;;;;;;;;;;;-1.20;99.90;;;;;;5057825;28;19932;-80
2021/12/23 02:09:21;;;;;;;;;;;-1.70;99.90;;;;;;5057071;28;20020;-80
2021/12/23 02:11:49;;;;;;;;;;;-1.70;99.90;;;;;;5048564;28;19948;-82
2021/12/23 02:14:17;;;;;;;;;;;-1.70;99.90;;;;;;5048105;28;19925;-81
2021/12/23 02:16:44;;;;;;;;;;;-1.70;99.90;;;;;;5046828;28;19925;-82
2021/12/23 02:19:14;;;;;;;;;;;-1.70;99.90;;;;;;5055349;28;19909;-83
2021/12/23 02:21:43;;;;;;;;;;;-1.70;99.90;;;;;;5047327;28;19933;-84
2021/12/23 02:24:10;;;;;;;;;;;-1.70;99.90;;;;;;5047760;28;19925;-83
2021/12/23 02:26:37;;;;;;;;;;;-1.70;99.90;;;;;;5047290;28;19925;-82
2021/12/23 02:29:04;;;;;;;;;;;-1.70;99.90;;;;;;5046645;28;19932;-82
2021/12/23 02:31:30;;;;;;;;;;;-1.70;99.90;;;;;;5046705;28;20284;-83
2021/12/23 02:33:57;;;;;;;;;;;-1.70;99.90;;;;;;5047199;28;19925;-79
2021/12/23 02:36:24;;;;;;;;;;;-1.70;99.90;;;;;;5047896;28;19932;-82
2021/12/23 02:38:51;;;;;;;;;;;-1.60;99.90;;;;;;5047342;28;19936;-81
2021/12/23 02:41:18;;;;;;;;;;;-1.70;99.90;;;;;;5046623;28;19925;-81
2021/12/23 02:43:44;;;;;;;;;;;-1.80;99.90;;;;;;5047634;28;19925;-82
2021/12/23 02:46:11;;;;;;;;;;;-1.80;99.90;;;;;;5047854;28;19925;-82
2021/12/23 02:48:38;;;;;;;;;;;-0.30;99.90;;;;;;5048034;28;19952;-82
2021/12/23 02:51:06;;;;;;;;;;;-1.60;99.90;;;;;;5046953;28;20085;-81
2021/12/23 02:53:32;;;;;;;;;;;-1.70;99.90;;;;;;5048210;28;20300;-81
2021/12/23 02:56:01;;;;;;;;;;;-1.70;99.90;;;;;;5047542;28;19925;-81
2021/12/23 02:58:28;;;;;;;;;;;-1.70;99.90;;;;;;5046936;28;20277;-81
2021/12/23 03:00:55;;;;;;;;;;;-1.70;99.90;;;;;;5047131;28;19932;-81
2021/12/23 03:03:22;;;;;;;;;;;-1.70;99.90;;;;;;5046713;28;19925;-81
2021/12/23 03:05:49;;;;;;;;;;;-1.70;99.90;;;;;;5047797;28;19925;-81
2021/12/23 03:08:15;;;;;;;;;;;-1.80;99.90;;;;;;5047298;28;19936;-81
2021/12/23 03:10:42;;;;;;;;;;;-1.80;99.90;;;;;;5048087;28;20008;-80
2021/12/23 03:13:10;;;;;;;;;;;-1.80;99.90;;;;;;5047109;28;19991;-80
2021/12/23 03:15:36;;;;;;;;;;;-1.80;99.90;;;;;;5047749;28;19929;-81
2021/12/23 03:18:03;;;;;;;;;;;-1.80;99.90;;;;;;5047693;28;19979;-81
2021/12/23 03:20:29;;;;;;;;;;;-1.70;99.90;;;;;;5046854;28;19952;-81
2021/12/23 03:22:56;;;;;;;;;;;-1.70;99.90;;;;;;5048790;28;19929;-81
2021/12/23 03:25:22;;;;;;;;;;;-1.70;99.90;;;;;;5049300;28;19925;-82
2021/12/23 03:27:49;;;;;;;;;;;-1.80;99.90;;;;;;5047961;28;19925;-80
2021/12/23 03:30:17;;;;;;;;;;;-1.80;99.90;;;;;;5045051;28;19936;-81
2021/12/23 03:32:43;;;;;;;;;;;-1.60;99.90;;;;;;5045800;28;19936;-80
2021/12/23 03:35:10;;;;;;;;;;;-1.70;99.90;;;;;;5045293;28;20001;-80
2021/12/23 03:37:36;;;;;;;;;;;-1.80;99.90;;;;;;5054849;28;19929;-78
2021/12/23 03:40:03;;;;;;;;;;;-1.80;99.90;;;;;;5060238;28;19913;-79
2021/12/23 03:42:30;;;;;;;;;;;-1.80;99.90;;;;;;5058246;28;19925;-80
2021/12/23 03:44:56;;;;;;;;;;;-1.80;99.90;;;;;;5054247;28;19948;-80
2021/12/23 03:47:24;;;;;;;;;;;-1.70;99.90;;;;;;5044765;28;19951;-81
2021/12/23 03:49:51;;;;;;;;;;;-1.80;99.90;;;;;;5043364;28;19925;-82
2021/12/23 03:52:17;;;;;;;;;;;-1.80;99.90;;;;;;5044801;28;19969;-82
2021/12/23 03:54:44;;;;;;;;;;;-1.90;99.90;;;;;;5043904;28;19933;-82
2021/12/23 03:57:10;;;;;;;;;;;-2.20;99.90;;;;;;5039840;28;19975;-81
2021/12/23 03:59:36;;;;;;;;;;;-1.90;99.90;;;;;;5040616;28;19964;-82
2021/12/23 04:02:03;;;;;;;;;;;-1.90;99.90;;;;;;5042327;28;19979;-81
2021/12/23 04:04:31;;;;;;;;;;;-1.90;99.90;;;;;;5053168;28;19936;-79
2021/12/23 04:06:58;;;;;;;;;;;-1.80;99.90;;;;;;5053411;28;19932;-82
2021/12/23 04:09:24;;;;;;;;;;;-1.10;99.90;;;;;;5043750;28;19925;-81
2021/12/23 04:11:50;;;;;;;;;;;-1.80;99.90;;;;;;5043421;28;19952;-81
2021/12/23 04:14:17;;;;;;;;;;;-1.80;99.90;;;;;;5045127;28;19952;-81
2021/12/23 04:16:44;;;;;;;;;;;-1.80;99.90;;;;;;5043781;28;19925;-80
2021/12/23 04:19:11;;;;;;;;;;;-1.60;99.90;;;;;;5043343;28;19936;-81
2021/12/23 04:21:39;;;;;;;;;;;-1.50;99.90;;;;;;5043753;28;20046;-81
2021/12/23 04:24:06;;;;;;;;;;;-1.70;99.90;;;;;;5043825;28;19933;-81
2021/12/23 04:26:33;;;;;;;;;;;-1.70;99.90;;;;;;5043890;28;19925;-80
2021/12/23 04:28:59;;;;;;;;;;;-1.70;99.90;;;;;;5044938;28;19925;-79
2021/12/23 04:31:26;;;;;;;;;;;-1.70;99.90;;;;;;5056148;28;19925;-79
2021/12/23 04:33:53;;;;;;;;;;;-1.70;99.90;;;;;;5055582;28;19947;-80
2021/12/23 04:36:20;;;;;;;;;;;-1.70;99.90;;;;;;5050746;28;19925;-82
2021/12/23 04:38:48;;;;;;;;;;;-1.60;99.90;;;;;;5043175;28;19925;-80
2021/12/23 04:41:15;;;;;;;;;;;-1.60;99.90;;;;;;5043735;28;19925;-80
2021/12/23 04:43:42;;;;;;;;;;;-1.60;99.90;;;;;;5044278;28;19971;-81
2021/12/23 04:46:09;;;;;;;;;;;-1.60;99.90;;;;;;5044496;28;19925;-81
2021/12/23 04:48:36;;;;;;;;;;;-1.60;99.90;;;;;;5042128;28;19936;-82
2021/12/23 04:51:02;;;;;;;;;;;-1.60;99.90;;;;;;5038305;28;19925;-82
2021/12/23 04:53:29;;;;;;;;;;;-1.60;99.90;;;;;;5036966;28;20427;-82
2021/12/23 04:55:57;;;;;;;;;;;0.50;99.90;;;;;;5039028;28;19975;-81
2021/12/23 04:58:24;;;;;;;;;;;-1.60;99.90;;;;;;5041082;28;19932;-82
2021/12/23 05:00:51;;;;;;;;;;;-1.70;99.90;;;;;;5041827;28;20349;-80
2021/12/23 05:03:19;;;;;;;;;;;-1.70;99.90;;;;;;5041805;28;19925;-81
2021/12/23 05:05:46;;;;;;;;;;;-1.60;99.90;;;;;;5041498;28;19937;-80
2021/12/23 05:08:12;;;;;;;;;;;-1.60;99.90;;;;;;5045411;28;19913;-79
2021/12/23 05:10:39;;;;;;;;;;;-1.60;99.90;;;;;;5056797;28;19948;-79
2021/12/23 05:13:07;;;;;;;;;;;-1.50;99.90;;;;;;5055905;28;19929;-82
2021/12/23 05:15:34;;;;;;;;;;;-1.50;99.90;;;;;;5044794;28;20247;-82
2021/12/23 05:18:00;;;;;;;;;;;-1.50;99.90;;;;;;5044295;28;20001;-81
2021/12/23 05:20:27;;;;;;;;;;;-1.60;99.90;;;;;;5042544;28;19948;-81
2021/12/23 05:22:54;;;;;;;;;;;-1.60;99.90;;;;;;5042588;28;19925;-81
2021/12/23 05:25:20;;;;;;;;;;;-1.60;99.90;;;;;;5042135;28;19948;-81
2021/12/23 05:27:47;;;;;;;;;;;-1.60;99.90;;;;;;5042764;28;19986;-82
2021/12/23 05:30:16;;;;;;;;;;;-1.70;99.90;;;;;;5043541;28;20449;-82
2021/12/23 05:32:43;;;;;;;;;;;-1.60;99.90;;;;;;5043917;28;19975;-82
2021/12/23 05:35:10;;;;;;;;;;;-1.60;99.90;;;;;;5044483;28;19932;-82
2021/12/23 05:37:37;;;;;;;;;;;-1.60;99.90;;;;;;5047066;28;20391;-82
2021/12/23 05:40:03;;;;;;;;;;;-1.60;99.90;;;;;;5044352;28;19925;-82
2021/12/23 05:42:30;;;;;;;;;;;-1.60;99.90;;;;;;5043542;28;20423;-82
2021/12/23 05:44:56;;;;;;;;;;;-1.60;99.90;;;;;;5043942;28;19925;-82
2021/12/23 05:47:24;;;;;;;;;;;-1.60;99.90;;;;;;5043574;28;19964;-81
2021/12/23 05:49:51;;;;;;;;;;;-1.60;99.90;;;;;;5044910;28;19936;-81
2021/12/23 05:52:17;;;;;;;;;;;-1.60;99.90;;;;;;5046170;28;19948;-81
2021/12/23 05:54:44;;;;;;;;;;;-1.50;99.90;;;;;;5052275;28;19925;-80
2021/12/23 05:57:10;;;;;;;;;;;-1.50;99.90;;;;;;5048325;28;19944;-82
2021/12/23 05:59:37;;;;;;;;;;;-1.40;99.90;;;;;;5043858;28;19925;-82
2021/12/23 06:02:05;;;;;;;;;;;-1.40;99.90;;;;;;5045460;28;19971;-82
2021/12/23 06:04:32;;;;;;;;;;;-1.40;99.90;;;;;;5053369;28;19924;-80
2021/12/23 06:06:59;;;;;;;;;;;-1.40;99.90;;;;;;5055006;28;19925;-81
2021/12/23 06:09:25;;;;;;;;;;;-1.30;99.90;;;;;;5055059;28;19925;-80
2021/12/23 06:11:52;;;;;;;;;;;-1.30;99.90;;;;;;5051644;28;19925;-81
2021/12/23 06:14:19;;;;;;;;;;;-1.30;99.90;;;;;;5035162;28;19975;-81
2021/12/23 06:16:45;;;;;;;;;;;-1.30;99.90;;;;;;5038290;28;20295;-82
2021/12/23 06:19:12;;;;;;;;;;;-1.30;99.90;;;;;;5057286;28;19925;-82
2021/12/23 06:21:40;;;;;;;;;;;-1.30;99.90;;;;;;5045865;28;19925;-82
2021/12/23 06:24:06;;;;;;;;;;;-1.30;99.90;;;;;;5047681;28;19929;-84
2021/12/23 06:26:33;;;;;;;;;;;-1.30;99.90;;;;;;5049257;28;19925;-82
2021/12/23 06:29:00;;;;;;;;;;;-1.20;99.90;;;;;;5047928;28;19925;-82
2021/12/23 06:31:26;;;;;;;;;;;-1.20;99.90;;;;;;5049593;28;19937;-82
2021/12/23 06:33:53;;;;;;;;;;;-1.20;99.90;;;;;;5056920;28;19921;-83
2021/12/23 06:36:20;;;;;;;;;;;-1.20;99.90;;;;;;5057097;28;19913;-81
2021/12/23 06:38:47;;;;;;;;;;;-1.10;99.90;;;;;;5050654;28;19936;-82
2021/12/23 06:41:15;;;;;;;;;;;-1.00;99.90;;;;;;5057678;28;19913;-80
2021/12/23 06:43:42;;;;;;;;;;;-1.30;99.90;;;;;;5058110;28;19909;-83
2021/12/23 06:46:08;;;;;;;;;;;-1.20;99.90;;;;;;5049621;28;19936;-83
2021/12/23 06:48:35;;;;;;;;;;;-1.10;99.90;;;;;;5049174;28;19925;-83
2021/12/23 06:51:01;;;;;;;;;;;-1.00;99.90;;;;;;5051228;28;20015;-82
2021/12/23 06:53:28;;;;;;;;;;;-1.00;99.90;;;;;;5051127;28;19925;-82
2021/12/23 06:55:56;;;;;;;;;;;1.50;99.90;;;;;;5051047;28;19951;-82
2021/12/23 06:58:24;;;;;;;;;;;-1.00;99.90;;;;;;5049539;28;19925;-82
2021/12/23 07:00:54;;;;;;;;;;;-1.00;99.90;;;;;;5050938;28;19925;-81
2021/12/23 07:03:23;;;;;;;;;;;-0.90;99.90;;;;;;5051702;28;19925;-82
2021/12/23 07:06:03;;;;;;;;;;;-0.90;99.90;;;;;;5048400;28;19980;-83
2021/12/23 07:55:09;;;;;;;;;;;-0.80;99.90;;;;;;5005008;28;19926;-83
2021/12/23 07:57:35;;;;;;;;;;;-0.80;99.90;;;;;;5005339;28;19926;-82
2021/12/23 08:00:04;;;;;;;;;;;-0.70;99.90;;;;;;5003894;28;19926;-82
2021/12/23 08:02:30;;;;;;;;;;;-0.70;99.90;;;;;;5004324;28;19927;-82
2021/12/23 08:04:57;;;;;;;;;;;-0.80;99.90;;;;;;5003610;28;20348;-82
2021/12/23 08:38:21;;;;;;;;;;;-0.70;99.90;;;;;;5008521;28;19936;-81
2021/12/23 08:40:48;;;;;;;;;;;-0.50;99.90;;;;;;5018603;28;19918;-81
2021/12/23 08:43:14;;;;;;;;;;;-0.60;99.90;;;;;;5019818;28;19913;-81
2021/12/23 08:45:41;;;;;;;;;;;-0.90;99.90;;;;;;5019891;28;19933;-81
2021/12/23 08:48:08;;;;;;;;;;;-0.60;99.90;;;;;;5012473;28;19925;-82
2021/12/23 08:50:34;;;;;;;;;;;-0.60;99.90;;;;;;5010245;28;19929;-82
2021/12/23 08:53:02;;;;;;;;;;;-0.50;99.90;;;;;;5000700;28;19961;-82
2021/12/23 08:55:31;;;;;;;;;;;-0.50;99.90;;;;;;4999166;28;20305;-81
2021/12/23 08:57:58;;;;;;;;;;;-0.60;99.90;;;;;;5005705;28;19936;-81
2021/12/23 09:00:26;;;;;;;;;;;-0.50;99.90;;;;;;5019499;28;19952;-80
2021/12/23 09:02:53;;;;;;;;;;;-0.50;99.90;;;;;;5019463;28;19922;-81
2021/12/23 09:05:20;;;;;;;;;;;-0.50;99.90;;;;;;5018280;28;19926;-80
2021/12/23 09:07:47;;;;;;;;;;;0.00;99.90;;;;;;5012850;28;19929;-81
2021/12/23 09:10:13;;;;;;;;;;;-0.40;99.90;;;;;;5010027;28;19926;-80
2021/12/23 09:12:41;;;;;;;;;;;-0.40;99.90;;;;;;5011181;28;19926;-79
2021/12/23 09:15:09;;;;;;;;;;;-0.30;99.90;;;;;;5014110;28;19926;-78
2021/12/23 09:17:35;;;;;;;;;;;-0.40;99.90;;;;;;5016794;28;19937;-81
2021/12/23 09:20:02;;;;;;;;;;;-0.40;99.90;;;;;;5017359;28;19953;-82
2021/12/23 09:22:28;;;;;;;;;;;-0.40;99.90;;;;;;5013063;28;19930;-83
2021/12/23 09:24:57;;;;;;;;;;;-0.50;99.90;;;;;;5011306;28;19992;-83
2021/12/23 09:27:32;;;;;;;;;;;-0.20;99.90;;;;;;5011753;28;19984;-85
2021/12/23 09:32:54;;;;;;;;;;;-0.40;99.90;;;;;;5009683;28;19933;-82
2021/12/23 09:35:22;;;;;;;;;;;-0.30;99.90;;;;;;5009023;28;19925;-82
2021/12/23 09:37:49;;;;;;;;;;;-0.30;99.90;;;;;;5013187;28;19933;-83
2021/12/23 09:40:16;;;;;;;;;;;-0.30;99.90;;;;;;5014982;28;19930;-82
2021/12/23 09:42:43;;;;;;;;;;;-0.20;99.90;;;;;;5016710;28;19965;-81
2021/12/23 09:45:13;;;;;;;;;;;-0.20;99.90;;;;;;5014240;28;19984;-81
2021/12/23 09:47:41;;;;;;;;;;;-0.20;99.90;;;;;;5009204;28;19989;-80
2021/12/23 09:50:10;;;;;;;;;;;-0.10;99.90;;;;;;5008735;28;19926;-82
2021/12/23 09:52:38;;;;;;;;;;;-0.10;99.90;;;;;;5008903;28;20415;-81
2021/12/23 09:55:05;;;;;;;;;;;-0.10;99.90;;;;;;5011114;28;19961;-80
2021/12/23 09:57:32;;;;;;;;;;;-0.10;99.90;;;;;;5008863;28;19950;-80
2021/12/23 09:59:58;;;;;;;;;;;0.00;99.90;;;;;;5008136;28;19980;-81
2021/12/23 10:02:26;;;;;;;;;;;0.00;99.90;;;;;;5008024;28;19984;-80
2021/12/23 10:04:53;;;;;;;;;;;0.00;99.90;;;;;;5010790;28;19940;-80
2021/12/23 10:07:19;;;;;;;;;;;0.00;99.90;;;;;;5013882;28;19914;-81
2021/12/23 10:09:56;;;;;;;;;;;0.10;99.90;;;;;;5011885;28;19914;-82
2021/12/23 10:13:05;;;;;;;;;;;0.10;99.90;;;;;;5017576;28;19922;-79
2021/12/23 10:32:15;;;;;;;;;;;0.20;99.90;;;;;;5011511;28;19944;-82
2021/12/23 10:37:27;;;;;;;;;;;0.20;99.90;;;;;;5015955;28;19936;-81
2021/12/23 10:39:55;;;;;;;;;;;0.30;99.90;;;;;;5018062;28;19926;-81
2021/12/23 10:42:23;;;;;;;;;;;0.30;99.90;;;;;;5019494;28;19925;-81
2021/12/23 10:44:50;;;;;;;;;;;0.40;99.90;;;;;;5019788;28;19925;-81
2021/12/23 10:47:34;;;;;;;;;;;0.40;99.90;;;;;;5018750;28;19910;-82
2021/12/23 10:50:14;;;;;;;;;;;0.40;99.90;;;;;;5016507;28;19949;-82
2021/12/23 10:52:48;;;;;;;;;;;0.40;99.90;;;;;;5015981;28;19926;-83
2021/12/23 10:58:06;;;;;;;;;;;0.50;99.90;;;;;;5013821;28;19945;-82
2021/12/23 11:00:33;;;;;;;;;;;0.50;99.90;;;;;;5008303;28;19949;-80
2021/12/23 11:03:01;;;;;;;;;;;0.50;99.90;;;;;;5008869;28;19973;-78
2021/12/23 11:05:33;;;;;;;;;;;0.50;99.90;;;;;;5010769;28;19926;-81
2021/12/23 11:08:10;;;;;;;;;;;0.60;99.90;;;;;;5011488;28;19933;-82
2021/12/23 11:10:56;;;;;;;;;;;0.60;99.90;;;;;;5009196;28;19932;-82
2021/12/23 11:27:35;;;;;;;;;;;0.80;99.90;;;;;;5008328;28;20025;-82
2021/12/23 11:35:51;;;;;;;;;;;0.90;99.90;;;;;;5004245;28;19996;-81
2021/12/23 11:38:28;;;;;;;;;;;0.90;99.90;;;;;;5020098;28;19969;-79
2021/12/23 11:40:59;;;;;;;;;;;0.80;99.90;;;;;;5021259;28;19936;-81
2021/12/23 11:43:30;;;;;;;;;;;1.00;99.90;;;;;;5021021;28;19921;-81
2021/12/23 11:46:00;;;;;;;;;;;1.10;99.90;;;;;;5020970;28;19953;-81
2021/12/23 11:48:26;;;;;;;;;;;1.00;99.90;;;;;;5020720;28;19925;-83
2021/12/23 11:51:06;;;;;;;;;;;0.60;99.90;;;;;;5016119;28;19930;-84
2021/12/23 11:53:35;;;;;;;;;;;0.90;99.90;;;;;;5011361;28;19926;-83
2021/12/23 11:56:04;;;;;;;;;;;1.00;99.90;;;;;;5012273;28;19989;-83
2021/12/23 11:58:31;;;;;;;;;;;1.00;99.90;;;;;;5011109;28;19949;-83
2021/12/23 12:01:01;;;;;;;;;;;1.00;99.90;;;;;;5010516;28;19932;-83
2021/12/23 12:03:27;;;;;;;;;;;1.00;99.90;;;;;;5012775;28;19926;-83
2021/12/23 12:06:12;;;;;;;;;;;1.00;99.90;;;;;;5011950;28;19926;-84
2021/12/23 12:08:40;;;;;;;;;;;1.10;99.90;;;;;;5011031;28;19933;-84
2021/12/23 12:11:14;;;;;;;;;;;1.20;99.90;;;;;;5010868;28;19926;-83
2021/12/23 12:13:40;;;;;;;;;;;1.30;99.90;;;;;;5010641;28;19952;-83
2021/12/23 12:16:25;;;;;;;;;;;1.30;99.90;;;;;;5010309;28;19926;-84
2021/12/23 12:18:51;;;;;;;;;;;1.50;99.90;;;;;;5010900;28;19980;-83
2021/12/23 12:21:21;;;;;;;;;;;1.50;99.90;;;;;;5011307;28;19932;-83
2021/12/23 12:23:48;;;;;;;;;;;1.60;99.90;;;;;;5011102;28;19926;-84
2021/12/23 12:26:23;;;;;;;;;;;1.60;99.90;;;;;;5011799;28;19926;-83
2021/12/23 12:28:50;;;;;;;;;;;1.60;99.90;;;;;;5008034;28;20263;-83
2021/12/23 12:31:20;;;;;;;;;;;1.60;99.90;;;;;;5007018;28;19949;-83
2021/12/23 12:33:54;;;;;;;;;;;1.60;99.90;;;;;;5012812;28;19988;-83
2021/12/23 12:36:21;;;;;;;;;;;1.70;99.90;;;;;;5007196;28;19926;-83
2021/12/23 12:38:50;;;;;;;;;;;1.70;99.90;;;;;;5008164;28;19926;-83
2021/12/23 12:41:19;;;;;;;;;;;1.70;99.90;;;;;;5008537;28;19932;-84
2021/12/23 12:43:53;;;;;;;;;;;1.60;99.90;;;;;;5010025;28;19929;-84
2021/12/23 12:46:46;;;;;;;;;;;1.70;99.90;;;;;;5008827;28;19926;-83
2021/12/23 12:49:16;;;;;;;;;;;1.70;99.90;;;;;;5008910;28;20020;-83
2021/12/23 12:51:44;;;;;;;;;;;1.70;99.90;;;;;;5010449;28;19925;-83
2021/12/23 12:54:15;;;;;;;;;;;1.50;99.90;;;;;;5010969;28;19937;-83
2021/12/23 12:56:44;;;;;;;;;;;1.50;99.90;;;;;;5010203;28;19989;-83
2021/12/23 12:59:11;;;;;;;;;;;1.50;99.90;;;;;;5011019;28;19926;-84
2021/12/23 13:01:41;;;;;;;;;;;1.60;99.90;;;;;;5010766;28;20373;-83
2021/12/23 13:04:20;;;;;;;;;;;1.60;99.90;;;;;;5010102;28;19926;-83
2021/12/23 13:06:46;;;;;;;;;;;1.80;99.90;;;;;;5010749;28;20304;-83
2021/12/23 13:09:15;;;;;;;;;;;1.60;99.90;;;;;;5010000;28;19932;-83
2021/12/23 13:11:42;;;;;;;;;;;1.50;99.90;;;;;;5008751;28;19925;-84
2021/12/23 13:14:13;;;;;;;;;;;1.50;99.90;;;;;;5009347;28;19926;-84
2021/12/23 13:16:50;;;;;;;;;;;1.40;99.90;;;;;;5010040;28;19926;-83
2021/12/23 13:19:21;;;;;;;;;;;1.50;99.90;;;;;;5010747;28;19926;-85
2021/12/23 13:21:48;;;;;;;;;;;1.50;99.90;;;;;;5011261;28;19953;-83
2021/12/23 13:24:17;;;;;;;;;;;1.50;99.90;;;;;;5012194;28;19976;-83
2021/12/23 13:26:44;;;;;;;;;;;1.50;99.90;;;;;;5012808;28;19926;-84
2021/12/23 13:29:11;;;;;;;;;;;1.40;99.90;;;;;;5013289;28;19995;-83
2021/12/23 13:31:39;;;;;;;;;;;1.50;99.90;;;;;;5016732;28;20405;-83
2021/12/23 13:34:06;;;;;;;;;;;1.40;99.90;;;;;;5014594;28;19926;-84
2021/12/23 13:36:34;;;;;;;;;;;1.50;99.90;;;;;;5008016;28;20299;-83
2021/12/23 13:39:01;;;;;;;;;;;1.50;99.90;;;;;;5010029;28;19949;-83
2021/12/23 13:41:29;;;;;;;;;;;1.60;99.90;;;;;;5009395;28;19926;-83
2021/12/23 13:43:58;;;;;;;;;;;1.60;99.90;;;;;;5008701;28;19929;-83
2021/12/23 13:46:25;;;;;;;;;;;1.50;99.90;;;;;;5009143;28;19926;-83
2021/12/23 13:48:53;;;;;;;;;;;1.60;99.90;;;;;;5009386;28;19926;-83
2021/12/23 13:51:20;;;;;;;;;;;1.60;99.90;;;;;;5008253;28;19929;-83
2021/12/23 13:53:47;;;;;;;;;;;1.50;99.90;;;;;;5008022;28;19937;-83
2021/12/23 13:56:14;;;;;;;;;;;1.50;99.90;;;;;;5009732;28;19926;-83
2021/12/23 13:58:42;;;;;;;;;;;1.50;99.90;;;;;;5010572;28;19949;-84
2021/12/23 14:01:09;;;;;;;;;;;1.50;99.90;;;;;;5010554;28;19926;-84
2021/12/23 14:03:35;;;;;;;;;;;1.60;99.90;;;;;;5010713;28;20274;-83
2021/12/23 14:06:02;;;;;;;;;;;1.40;99.90;;;;;;5010575;28;19936;-83
2021/12/23 14:08:32;;;;;;;;;;;1.40;99.90;;;;;;5015715;28;21534;-82
2021/12/23 14:11:00;;;;;;;;;;;1.50;99.90;;;;;;5017032;28;19925;-84
2021/12/23 14:13:26;;;;;;;;;;;1.50;99.90;;;;;;5017582;28;19917;-83
2021/12/23 14:15:54;;;;;;;;;;;1.60;99.90;;;;;;5018522;28;19926;-83
2021/12/23 14:18:30;;;;;;;;;;;1.60;99.90;;;;;;5014256;28;19926;-84
2021/12/23 14:23:44;;;;;;;;;;;1.60;99.90;;;;;;5011357;28;20016;-84
2021/12/23 14:26:12;;;;;;;;;;;1.70;99.90;;;;;;5012731;28;19930;-84
2021/12/23 14:28:42;;;;;;;;;;;1.60;99.90;;;;;;5011446;28;19936;-84
2021/12/23 14:31:18;;;;;;;;;;;1.60;99.90;;;;;;5011517;28;19926;-84
2021/12/23 14:33:46;;;;;;;;;;;1.60;99.90;;;;;;5013173;28;19926;-82
2021/12/23 15:37:06;;;;;;;;;;;1.70;99.90;;;;;;5051005;23;19937;-83
2021/12/23 15:39:34;;;;;;;;;;;1.70;99.90;;;;;;5052294;28;19957;-83
2021/12/23 15:42:02;;;;;;;;;;;1.70;99.90;;;;;;5053414;28;19948;-83
2021/12/23 15:44:29;;;;;;;;;;;1.70;99.90;;;;;;5052329;28;19926;-84
2021/12/23 15:46:57;;;;;;;;;;;1.70;99.90;;;;;;5051924;28;19926;-84
2021/12/23 15:49:24;;;;;;;;;;;1.70;99.90;;;;;;5051980;28;20007;-84
2021/12/23 15:51:50;;;;;;;;;;;1.70;99.90;;;;;;5050415;28;19932;-83
2021/12/23 15:54:18;;;;;;;;;;;1.70;99.90;;;;;;5046532;28;19979;-83
2021/12/23 15:56:45;;;;;;;;;;;1.70;99.90;;;;;;5046819;28;19925;-84
2021/12/23 15:59:11;;;;;;;;;;;1.70;99.90;;;;;;5048344;28;19933;-83
2021/12/23 16:01:38;;;;;;;;;;;1.70;99.90;;;;;;5050458;28;19926;-83
2021/12/23 16:04:05;;;;;;;;;;;1.70;99.90;;;;;;5052025;28;19952;-84
2021/12/23 16:09:19;;;;;;;;;;;1.70;99.90;;;;;;5051257;28;20451;-84
2021/12/23 16:11:47;;;;;;;;;;;1.60;99.90;;;;;;5050864;28;19925;-83
2021/12/23 16:14:13;;;;;;;;;;;1.70;99.90;;;;;;5051415;28;19929;-82
2021/12/23 16:16:40;;;;;;;;;;;1.70;99.90;;;;;;5052298;28;19932;-82
2021/12/23 16:19:06;;;;;;;;;;;1.60;99.90;;;;;;5054866;28;19925;-83
2021/12/23 16:21:33;;;;;;;;;;;1.60;99.90;;;;;;5056141;28;19940;-84
2021/12/23 16:23:59;;;;;;;;;;;1.60;99.90;;;;;;5056578;28;19932;-83
2021/12/23 16:26:27;;;;;;;;;;;1.60;99.90;;;;;;5054495;28;19925;-84
2021/12/23 16:28:56;;;;;;;;;;;1.70;99.90;;;;;;5052764;28;19925;-83
2021/12/23 16:31:24;;;;;;;;;;;1.70;99.90;;;;;;5053469;28;19983;-83
2021/12/23 16:33:50;;;;;;;;;;;1.70;99.90;;;;;;5053265;28;19926;-83
2021/12/23 16:36:17;;;;;;;;;;;1.60;99.90;;;;;;5052665;28;19926;-84
2021/12/23 16:38:43;;;;;;;;;;;1.70;99.90;;;;;;5053424;28;19983;-83
2021/12/23 16:41:12;;;;;;;;;;;1.70;99.90;;;;;;5052176;28;19925;-83
2021/12/23 16:43:40;;;;;;;;;;;1.70;99.90;;;;;;5052062;28;19925;-83
2021/12/23 16:46:07;;;;;;;;;;;1.60;99.90;;;;;;5051203;28;20001;-83
2021/12/23 16:48:34;;;;;;;;;;;1.60;99.90;;;;;;5052161;28;19929;-84
2021/12/23 16:51:01;;;;;;;;;;;1.30;99.90;;;;;;5051555;28;19925;-84
2021/12/23 16:53:28;;;;;;;;;;;1.60;99.90;;;;;;5050654;28;19929;-84
2021/12/23 16:56:16;;;;;;;;;;;1.60;99.90;;;;;;5050948;28;19925;-84
2021/12/23 16:58:44;;;;;;;;;;;1.40;99.90;;;;;;5052577;28;19925;-83
2021/12/23 17:01:12;;;;;;;;;;;1.30;99.90;;;;;;5051386;28;19968;-82
2021/12/23 17:03:41;;;;;;;;;;;1.10;99.90;;;;;;5049151;28;19931;-83
2021/12/23 17:06:08;;;;;;;;;;;1.70;99.90;;;;;;5057893;28;19932;-82
2021/12/23 17:08:35;;;;;;;;;;;0.90;99.90;;;;;;5059082;28;19913;-83
2021/12/23 17:11:03;;;;;;;;;;;1.00;99.90;;;;;;5055359;28;19932;-83
2021/12/23 17:13:29;;;;;;;;;;;0.80;99.90;;;;;;5050567;28;19929;-84
2021/12/23 17:15:57;;;;;;;;;;;0.80;99.90;;;;;;5051486;28;19925;-83
2021/12/23 17:18:33;;;;;;;;;;;0.70;99.90;;;;;;5051258;28;19925;-84
2021/12/23 17:24:00;;;;;;;;;;;0.70;99.90;;;;;;4992884;28;19979;-83
2021/12/23 17:26:27;;;;;;;;;;;0.50;99.90;;;;;;4992224;28;19926;-84
2021/12/23 17:28:54;;;;;;;;;;;0.60;99.90;;;;;;5016474;28;19952;-85
2021/12/23 17:31:22;;;;;;;;;;;0.60;99.90;;;;;;5050617;28;19939;-83
2021/12/23 17:33:49;;;;;;;;;;;0.50;99.90;;;;;;5049210;28;19925;-84
2021/12/23 17:36:16;;;;;;;;;;;0.60;99.90;;;;;;5046787;28;19925;-83
2021/12/23 17:38:47;;;;;;;;;;;0.60;99.90;;;;;;5049251;28;19929;-84
2021/12/23 17:41:14;;;;;;;;;;;0.50;99.90;;;;;;5048990;28;19929;-84